sensor_id;sensor_type;location;lat;lon;timestamp;pressure;altitude;pressure_sealevel;temperature;humidity
6132;BME280;3097;42.692;23.278;2023-09-19T00:00:38;95385.44;;;18.38;77.51
6132;BME280;3097;42.692;23.278;2023-09-19T00:03:05;95389.38;;;18.41;77.30
6132;BME280;3097;42.692;23.278;2023-09-19T00:05:35;95384.94;;;18.41;77.48
6132;BME280;3097;42.692;23.278;2023-09-19T00:08:01;95387.78;;;18.35;77.75
6132;BME280;3097;42.692;23.278;2023-09-19T00:10:30;95391.19;;;18.40;77.84
6132;BME280;3097;42.692;23.278;2023-09-19T00:12:57;95375.78;;;18.34;77.66
6132;BME280;3097;42.692;23.278;2023-09-19T00:15:27;95388.34;;;18.52;77.51
6132;BME280;3097;42.692;23.278;2023-09-19T00:17:56;95379.97;;;18.45;77.41
6132;BME280;3097;42.692;23.278;2023-09-19T00:20:22;95357.44;;;18.13;78.75
6132;BME280;3097;42.692;23.278;2023-09-19T00:22:50;95380.41;;;18.16;79.35
6132;BME280;3097;42.692;23.278;2023-09-19T00:25:20;95353.72;;;17.89;79.72
6132;BME280;3097;42.692;23.278;2023-09-19T00:27:46;95349.19;;;17.74;80.47
6132;BME280;3097;42.692;23.278;2023-09-19T00:30:13;95375.06;;;17.86;81.17
6132;BME280;3097;42.692;23.278;2023-09-19T00:32:42;95346.06;;;17.72;80.98
6132;BME280;3097;42.692;23.278;2023-09-19T00:35:08;95368.03;;;17.87;81.12
6132;BME280;3097;42.692;23.278;2023-09-19T00:37:37;95355.50;;;17.84;81.39
6132;BME280;3097;42.692;23.278;2023-09-19T00:40:08;95362.03;;;17.86;81.46
6132;BME280;3097;42.692;23.278;2023-09-19T00:42:44;95373.28;;;17.97;80.80
6132;BME280;3097;42.692;23.278;2023-09-19T00:45:11;95370.94;;;17.95;81.26
6132;BME280;3097;42.692;23.278;2023-09-19T00:47:48;95372.28;;;18.03;80.68
6132;BME280;3097;42.692;23.278;2023-09-19T00:50:17;95373.56;;;18.00;80.90
6132;BME280;3097;42.692;23.278;2023-09-19T00:52:43;95375.41;;;18.05;80.96
6132;BME280;3097;42.692;23.278;2023-09-19T00:55:10;95376.19;;;18.05;80.54
6132;BME280;3097;42.692;23.278;2023-09-19T00:57:38;95341.72;;;17.93;80.42
6132;BME280;3097;42.692;23.278;2023-09-19T01:00:08;95368.94;;;18.17;80.06
6132;BME280;3097;42.692;23.278;2023-09-19T01:02:42;95369.94;;;18.06;80.80
6132;BME280;3097;42.692;23.278;2023-09-19T01:05:11;95365.81;;;18.15;80.47
6132;BME280;3097;42.692;23.278;2023-09-19T01:07:37;95367.84;;;18.03;81.13
6132;BME280;3097;42.692;23.278;2023-09-19T01:10:07;95366.53;;;17.96;81.43
6132;BME280;3097;42.692;23.278;2023-09-19T01:23:22;95352.59;;;17.75;82.00
6132;BME280;3097;42.692;23.278;2023-09-19T01:31:00;95379.13;;;17.67;83.23
6132;BME280;3097;42.692;23.278;2023-09-19T01:33:53;95374.13;;;17.60;83.46
6132;BME280;3097;42.692;23.278;2023-09-19T01:36:16;95378.88;;;17.63;83.42
6132;BME280;3097;42.692;23.278;2023-09-19T01:38:42;95370.31;;;17.73;83.14
6132;BME280;3097;42.692;23.278;2023-09-19T01:41:11;95369.56;;;17.77;82.83
6132;BME280;3097;42.692;23.278;2023-09-19T01:43:42;95353.91;;;17.83;82.36
6132;BME280;3097;42.692;23.278;2023-09-19T01:46:33;95366.78;;;17.99;81.78
6132;BME280;3097;42.692;23.278;2023-09-19T01:52:25;95371.97;;;17.94;82.08
6132;BME280;3097;42.692;23.278;2023-09-19T01:54:56;95375.13;;;17.96;82.24
6132;BME280;3097;42.692;23.278;2023-09-19T01:57:34;95359.69;;;17.85;82.14
6132;BME280;3097;42.692;23.278;2023-09-19T02:00:05;95353.13;;;17.77;82.20
6132;BME280;3097;42.692;23.278;2023-09-19T02:02:36;95370.41;;;17.93;82.29
6132;BME280;3097;42.692;23.278;2023-09-19T02:05:03;95377.19;;;17.89;82.63
6132;BME280;3097;42.692;23.278;2023-09-19T02:07:29;95370.88;;;17.80;82.98
6132;BME280;3097;42.692;23.278;2023-09-19T02:10:00;95372.47;;;17.81;83.20
6132;BME280;3097;42.692;23.278;2023-09-19T02:12:26;95369.84;;;17.81;83.13
6132;BME280;3097;42.692;23.278;2023-09-19T02:14:52;95380.84;;;17.88;82.89
6132;BME280;3097;42.692;23.278;2023-09-19T02:17:18;95375.09;;;17.91;82.27
6132;BME280;3097;42.692;23.278;2023-09-19T02:19:44;95357.06;;;17.79;82.25
6132;BME280;3097;42.692;23.278;2023-09-19T02:22:10;95375.63;;;17.88;82.40
6132;BME280;3097;42.692;23.278;2023-09-19T02:24:38;95368.28;;;17.85;82.20
6132;BME280;3097;42.692;23.278;2023-09-19T02:27:04;95303.16;;;17.43;82.50
6132;BME280;3097;42.692;23.278;2023-09-19T02:29:30;95368.53;;;17.78;82.47
6132;BME280;3097;42.692;23.278;2023-09-19T02:31:56;95352.78;;;17.63;82.35
6132;BME280;3097;42.692;23.278;2023-09-19T02:34:22;95355.19;;;17.70;82.45
6132;BME280;3097;42.692;23.278;2023-09-19T02:36:48;95359.59;;;17.69;82.64
6132;BME280;3097;42.692;23.278;2023-09-19T02:39:14;95343.88;;;17.59;82.83
6132;BME280;3097;42.692;23.278;2023-09-19T02:41:39;95351.75;;;17.64;82.97
6132;BME280;3097;42.692;23.278;2023-09-19T02:44:07;95348.63;;;17.62;83.10
6132;BME280;3097;42.692;23.278;2023-09-19T02:46:34;95350.34;;;17.52;83.29
6132;BME280;3097;42.692;23.278;2023-09-19T02:49:01;95337.53;;;17.45;83.19
6132;BME280;3097;42.692;23.278;2023-09-19T02:51:28;95341.47;;;17.48;83.21
6132;BME280;3097;42.692;23.278;2023-09-19T02:53:54;95342.72;;;17.40;83.32
6132;BME280;3097;42.692;23.278;2023-09-19T02:56:20;95346.91;;;17.41;83.37
6132;BME280;3097;42.692;23.278;2023-09-19T02:58:45;95338.00;;;17.37;83.69
6132;BME280;3097;42.692;23.278;2023-09-19T03:01:11;95340.34;;;17.33;83.76
6132;BME280;3097;42.692;23.278;2023-09-19T03:03:37;95244.06;;;16.70;84.08
6132;BME280;3097;42.692;23.278;2023-09-19T03:06:05;95323.28;;;17.16;84.15
6132;BME280;3097;42.692;23.278;2023-09-19T03:08:31;95336.88;;;17.23;84.17
6132;BME280;3097;42.692;23.278;2023-09-19T03:11:03;95333.72;;;17.16;84.57
6132;BME280;3097;42.692;23.278;2023-09-19T03:13:31;95320.38;;;17.07;84.46
6132;BME280;3097;42.692;23.278;2023-09-19T03:15:57;95336.06;;;17.17;84.55
6132;BME280;3097;42.692;23.278;2023-09-19T03:18:24;95330.06;;;17.12;84.30
6132;BME280;3097;42.692;23.278;2023-09-19T03:20:55;95328.69;;;17.04;84.80
6132;BME280;3097;42.692;23.278;2023-09-19T03:23:22;95313.53;;;16.96;84.49
6132;BME280;3097;42.692;23.278;2023-09-19T03:25:48;95326.63;;;17.06;84.77
6132;BME280;3097;42.692;23.278;2023-09-19T03:28:13;95327.09;;;16.98;84.96
6132;BME280;3097;42.692;23.278;2023-09-19T03:30:41;95290.19;;;16.74;85.10
6132;BME280;3097;42.692;23.278;2023-09-19T03:33:06;95333.78;;;16.89;85.10
6132;BME280;3097;42.692;23.278;2023-09-19T03:35:32;95292.72;;;16.64;85.29
6132;BME280;3097;42.692;23.278;2023-09-19T03:37:57;95339.47;;;16.86;85.67
6132;BME280;3097;42.692;23.278;2023-09-19T03:40:23;95344.94;;;16.84;85.42
6132;BME280;3097;42.692;23.278;2023-09-19T03:42:50;95342.09;;;16.86;85.18
6132;BME280;3097;42.692;23.278;2023-09-19T03:45:16;95344.66;;;16.81;85.93
6132;BME280;3097;42.692;23.278;2023-09-19T03:47:43;95321.53;;;16.57;86.03
6132;BME280;3097;42.692;23.278;2023-09-19T03:50:09;95302.69;;;16.45;86.01
6132;BME280;3097;42.692;23.278;2023-09-19T03:52:40;95329.81;;;16.54;86.14
6132;BME280;3097;42.692;23.278;2023-09-19T03:55:06;95358.56;;;16.64;86.67
6132;BME280;3097;42.692;23.278;2023-09-19T03:57:31;95356.47;;;16.61;86.48
6132;BME280;3097;42.692;23.278;2023-09-19T03:59:57;95350.75;;;16.64;86.28
6132;BME280;3097;42.692;23.278;2023-09-19T04:02:23;95346.22;;;16.55;86.70
6132;BME280;3097;42.692;23.278;2023-09-19T04:04:49;95315.13;;;16.38;86.46
6132;BME280;3097;42.692;23.278;2023-09-19T04:07:15;95356.47;;;16.61;86.36
6132;BME280;3097;42.692;23.278;2023-09-19T04:09:41;95365.84;;;16.62;86.08
6132;BME280;3097;42.692;23.278;2023-09-19T04:12:07;95370.56;;;16.66;85.72
6132;BME280;3097;42.692;23.278;2023-09-19T04:14:35;95369.81;;;16.70;85.62
6132;BME280;3097;42.692;23.278;2023-09-19T04:17:01;95365.84;;;16.62;86.21
6132;BME280;3097;42.692;23.278;2023-09-19T04:19:27;95367.34;;;16.58;86.62
6132;BME280;3097;42.692;23.278;2023-09-19T04:21:52;95353.75;;;16.51;86.67
6132;BME280;3097;42.692;23.278;2023-09-19T04:24:18;95356.63;;;16.55;86.96
6132;BME280;3097;42.692;23.278;2023-09-19T04:26:45;95359.28;;;16.60;87.22
6132;BME280;3097;42.692;23.278;2023-09-19T04:29:11;95354.91;;;16.60;87.21
6132;BME280;3097;42.692;23.278;2023-09-19T04:31:39;95361.13;;;16.59;87.79
6132;BME280;3097;42.692;23.278;2023-09-19T04:34:06;95340.53;;;16.58;86.85
6132;BME280;3097;42.692;23.278;2023-09-19T04:36:33;95353.72;;;16.73;86.87
6132;BME280;3097;42.692;23.278;2023-09-19T04:38:58;95352.97;;;16.78;86.70
6132;BME280;3097;42.692;23.278;2023-09-19T04:41:24;95352.75;;;16.84;86.72
6132;BME280;3097;42.692;23.278;2023-09-19T04:43:49;95334.22;;;16.76;86.19
6132;BME280;3097;42.692;23.278;2023-09-19T04:46:16;95349.44;;;16.94;86.19
6132;BME280;3097;42.692;23.278;2023-09-19T04:48:43;95339.91;;;17.05;86.16
6132;BME280;3097;42.692;23.278;2023-09-19T04:51:08;95335.50;;;17.10;86.06
6132;BME280;3097;42.692;23.278;2023-09-19T04:53:35;95332.97;;;17.20;85.71
6132;BME280;3097;42.692;23.278;2023-09-19T04:56:01;95341.78;;;17.56;84.95
6132;BME280;3097;42.692;23.278;2023-09-19T04:58:29;95341.47;;;18.00;83.50
6132;BME280;3097;42.692;23.278;2023-09-19T05:00:54;95338.19;;;18.45;81.82
6132;BME280;3097;42.692;23.278;2023-09-19T05:03:20;95334.63;;;18.91;79.29
6132;BME280;3097;42.692;23.278;2023-09-19T05:05:46;95316.06;;;19.13;78.10
6132;BME280;3097;42.692;23.278;2023-09-19T05:08:11;95319.41;;;19.44;76.49
6132;BME280;3097;42.692;23.278;2023-09-19T05:10:40;95338.06;;;20.07;75.42
6132;BME280;3097;42.692;23.278;2023-09-19T05:13:06;95330.44;;;20.60;73.23
6132;BME280;3097;42.692;23.278;2023-09-19T05:15:33;95332.69;;;21.05;71.29
6132;BME280;3097;42.692;23.278;2023-09-19T05:18:00;95336.53;;;21.47;69.80
6132;BME280;3097;42.692;23.278;2023-09-19T05:20:26;95331.94;;;21.86;68.35
6132;BME280;3097;42.692;23.278;2023-09-19T05:25:26;95330.38;;;22.84;65.12
6132;BME280;3097;42.692;23.278;2023-09-19T05:27:57;95337.69;;;23.20;63.89
6132;BME280;3097;42.692;23.278;2023-09-19T05:30:27;95318.75;;;23.04;62.99
6132;BME280;3097;42.692;23.278;2023-09-19T05:32:53;95329.75;;;22.73;64.40
6132;BME280;3097;42.692;23.278;2023-09-19T05:35:19;95322.91;;;22.35;65.35
6132;BME280;3097;42.692;23.278;2023-09-19T05:37:47;95329.94;;;22.02;67.12
6132;BME280;3097;42.692;23.278;2023-09-19T05:40:16;95323.78;;;21.64;67.87
6132;BME280;3097;42.692;23.278;2023-09-19T05:42:42;95307.91;;;21.27;68.72
6132;BME280;3097;42.692;23.278;2023-09-19T05:45:09;95319.00;;;21.18;70.04
6132;BME280;3097;42.692;23.278;2023-09-19T05:47:41;95308.56;;;21.08;71.25
6132;BME280;3097;42.692;23.278;2023-09-19T05:50:09;95318.06;;;20.99;71.52
6132;BME280;3097;42.692;23.278;2023-09-19T05:52:38;95310.72;;;21.01;72.14
6132;BME280;3097;42.692;23.278;2023-09-19T05:55:05;95317.44;;;21.12;71.69
6132;BME280;3097;42.692;23.278;2023-09-19T05:57:32;95318.97;;;21.47;69.98
6132;BME280;3097;42.692;23.278;2023-09-19T05:59:58;95310.81;;;21.73;68.28
6132;BME280;3097;42.692;23.278;2023-09-19T06:02:23;95298.34;;;21.83;67.92
6132;BME280;3097;42.692;23.278;2023-09-19T06:04:49;95304.94;;;22.05;67.99
6132;BME280;3097;42.692;23.278;2023-09-19T06:07:15;95316.44;;;22.27;67.27
6132;BME280;3097;42.692;23.278;2023-09-19T06:09:41;95292.59;;;22.61;66.55
6132;BME280;3097;42.692;23.278;2023-09-19T06:12:07;95302.44;;;23.21;65.14
6132;BME280;3097;42.692;23.278;2023-09-19T06:14:33;95310.97;;;23.59;62.97
6132;BME280;3097;42.692;23.278;2023-09-19T06:16:58;95306.00;;;23.71;63.17
6132;BME280;3097;42.692;23.278;2023-09-19T06:19:25;95311.25;;;23.84;62.85
6132;BME280;3097;42.692;23.278;2023-09-19T06:21:52;95300.09;;;24.15;61.37
6132;BME280;3097;42.692;23.278;2023-09-19T06:24:19;95290.31;;;24.43;59.22
6132;BME280;3097;42.692;23.278;2023-09-19T06:26:45;95294.75;;;24.78;58.13
6132;BME280;3097;42.692;23.278;2023-09-19T06:29:10;95297.38;;;25.23;59.23
6132;BME280;3097;42.692;23.278;2023-09-19T06:31:38;95296.38;;;25.80;55.42
6132;BME280;3097;42.692;23.278;2023-09-19T06:34:04;95291.19;;;26.15;53.60
6132;BME280;3097;42.692;23.278;2023-09-19T06:36:29;95295.09;;;26.35;54.36
6132;BME280;3097;42.692;23.278;2023-09-19T06:38:55;95296.59;;;26.18;54.56
6132;BME280;3097;42.692;23.278;2023-09-19T06:41:20;95300.44;;;25.95;54.98
6132;BME280;3097;42.692;23.278;2023-09-19T06:43:50;95299.69;;;25.55;55.45
6132;BME280;3097;42.692;23.278;2023-09-19T06:46:18;95273.22;;;25.07;56.25
6132;BME280;3097;42.692;23.278;2023-09-19T06:48:44;95292.63;;;25.02;56.53
6132;BME280;3097;42.692;23.278;2023-09-19T06:51:11;95301.72;;;24.96;57.23
6132;BME280;3097;42.692;23.278;2023-09-19T06:53:36;95231.84;;;24.05;57.31
6132;BME280;3097;42.692;23.278;2023-09-19T06:56:02;95284.50;;;24.18;57.70
6132;BME280;3097;42.692;23.278;2023-09-19T06:58:28;95311.91;;;24.17;58.74
6132;BME280;3097;42.692;23.278;2023-09-19T07:00:53;95311.25;;;23.98;59.50
6132;BME280;3097;42.692;23.278;2023-09-19T07:03:19;95274.00;;;23.77;59.91
6132;BME280;3097;42.692;23.278;2023-09-19T07:05:48;95313.41;;;23.96;60.30
6132;BME280;3097;42.692;23.278;2023-09-19T07:08:13;95310.00;;;23.82;59.84
6132;BME280;3097;42.692;23.278;2023-09-19T07:10:41;95318.09;;;23.72;60.91
6132;BME280;3097;42.692;23.278;2023-09-19T07:13:07;95298.34;;;23.28;61.40
6132;BME280;3097;42.692;23.278;2023-09-19T07:15:34;95274.31;;;22.89;62.73
6132;BME280;3097;42.692;23.278;2023-09-19T07:18:12;95308.59;;;22.97;63.27
6132;BME280;3097;42.692;23.278;2023-09-19T07:20:40;95318.13;;;22.93;63.40
6132;BME280;3097;42.692;23.278;2023-09-19T07:23:11;95290.31;;;22.73;63.88
6132;BME280;3097;42.692;23.278;2023-09-19T07:25:39;95290.84;;;22.70;63.00
6132;BME280;3097;42.692;23.278;2023-09-19T07:28:05;95315.31;;;22.52;64.42
6132;BME280;3097;42.692;23.278;2023-09-19T07:30:30;95323.84;;;22.44;64.33
6132;BME280;3097;42.692;23.278;2023-09-19T07:32:56;95316.88;;;22.16;64.61
6132;BME280;3097;42.692;23.278;2023-09-19T07:35:21;95311.97;;;21.85;66.13
6132;BME280;3097;42.692;23.278;2023-09-19T07:37:48;95315.94;;;21.83;67.45
6132;BME280;3097;42.692;23.278;2023-09-19T07:40:17;95310.41;;;21.84;67.59
6132;BME280;3097;42.692;23.278;2023-09-19T07:42:43;95323.91;;;22.02;66.88
6132;BME280;3097;42.692;23.278;2023-09-19T07:45:10;95314.97;;;22.03;66.60
6132;BME280;3097;42.692;23.278;2023-09-19T07:47:45;95299.41;;;22.06;67.28
6132;BME280;3097;42.692;23.278;2023-09-19T07:50:12;95311.44;;;22.31;65.73
6132;BME280;3097;42.692;23.278;2023-09-19T07:52:38;95322.50;;;22.47;65.66
6132;BME280;3097;42.692;23.278;2023-09-19T07:55:08;95310.94;;;22.48;65.21
6132;BME280;3097;42.692;23.278;2023-09-19T07:57:36;95311.41;;;22.68;64.63
6132;BME280;3097;42.692;23.278;2023-09-19T08:00:03;95317.09;;;22.75;64.42
6132;BME280;3097;42.692;23.278;2023-09-19T08:02:36;95318.09;;;22.80;65.34
6132;BME280;3097;42.692;23.278;2023-09-19T08:05:03;95307.97;;;22.87;64.29
6132;BME280;3097;42.692;23.278;2023-09-19T08:07:32;95298.28;;;23.01;65.51
6132;BME280;3097;42.692;23.278;2023-09-19T08:09:57;95288.59;;;23.15;64.00
6132;BME280;3097;42.692;23.278;2023-09-19T08:12:24;95286.44;;;23.31;63.74
6132;BME280;3097;42.692;23.278;2023-09-19T08:14:49;95297.22;;;23.48;63.35
6132;BME280;3097;42.692;23.278;2023-09-19T08:17:15;95272.31;;;23.40;63.69
6132;BME280;3097;42.692;23.278;2023-09-19T08:19:41;95282.03;;;23.59;62.74
6132;BME280;3097;42.692;23.278;2023-09-19T08:22:07;95277.97;;;23.47;61.11
6132;BME280;3097;42.692;23.278;2023-09-19T08:24:36;95277.69;;;23.35;61.34
6132;BME280;3097;42.692;23.278;2023-09-19T08:27:01;95279.94;;;23.28;62.35
6132;BME280;3097;42.692;23.278;2023-09-19T08:29:29;95282.47;;;23.33;62.66
6132;BME280;3097;42.692;23.278;2023-09-19T08:31:56;95294.69;;;23.57;63.61
6132;BME280;3097;42.692;23.278;2023-09-19T08:34:25;95296.34;;;23.80;61.74
6132;BME280;3097;42.692;23.278;2023-09-19T08:36:54;95297.69;;;24.05;61.15
6132;BME280;3097;42.692;23.278;2023-09-19T08:39:23;95288.41;;;24.21;61.52
6132;BME280;3097;42.692;23.278;2023-09-19T08:41:49;95292.03;;;24.47;60.14
6132;BME280;3097;42.692;23.278;2023-09-19T08:44:15;95285.84;;;24.65;59.36
6132;BME280;3097;42.692;23.278;2023-09-19T08:46:43;95288.56;;;24.83;59.44
6132;BME280;3097;42.692;23.278;2023-09-19T08:49:37;95277.91;;;24.65;59.75
6132;BME280;3097;42.692;23.278;2023-09-19T08:52:22;95284.06;;;24.61;59.20
6132;BME280;3097;42.692;23.278;2023-09-19T08:54:52;95273.88;;;24.46;59.56
6132;BME280;3097;42.692;23.278;2023-09-19T08:57:19;95280.59;;;24.52;59.88
6132;BME280;3097;42.692;23.278;2023-09-19T08:59:48;95284.31;;;24.51;58.59
6132;BME280;3097;42.692;23.278;2023-09-19T09:02:16;95280.00;;;24.19;59.66
6132;BME280;3097;42.692;23.278;2023-09-19T09:04:45;95281.34;;;24.16;59.94
6132;BME280;3097;42.692;23.278;2023-09-19T09:07:11;95280.56;;;24.16;59.77
6132;BME280;3097;42.692;23.278;2023-09-19T09:09:40;95258.38;;;23.95;60.42
6132;BME280;3097;42.692;23.278;2023-09-19T09:12:12;95276.66;;;24.13;61.22
6132;BME280;3097;42.692;23.278;2023-09-19T09:14:39;95230.31;;;23.90;59.61
6132;BME280;3097;42.692;23.278;2023-09-19T09:17:05;95265.94;;;24.23;60.17
6132;BME280;3097;42.692;23.278;2023-09-19T09:19:30;95263.25;;;24.01;60.22
6132;BME280;3097;42.692;23.278;2023-09-19T09:22:06;95262.31;;;23.70;60.94
6132;BME280;3097;42.692;23.278;2023-09-19T09:24:32;95260.88;;;23.50;61.59
6132;BME280;3097;42.692;23.278;2023-09-19T09:27:04;95252.72;;;23.19;62.00
6132;BME280;3097;42.692;23.278;2023-09-19T09:29:46;95254.59;;;23.19;63.07
6132;BME280;3097;42.692;23.278;2023-09-19T09:32:26;95249.31;;;23.32;63.99
6132;BME280;3097;42.692;23.278;2023-09-19T09:34:58;95243.59;;;23.44;62.03
6132;BME280;3097;42.692;23.278;2023-09-19T09:37:25;95236.09;;;23.65;61.69
6132;BME280;3097;42.692;23.278;2023-09-19T09:39:52;95235.19;;;23.83;62.11
6132;BME280;3097;42.692;23.278;2023-09-19T09:42:35;95237.84;;;24.19;62.76
6132;BME280;3097;42.692;23.278;2023-09-19T09:45:22;95224.16;;;24.30;61.09
6132;BME280;3097;42.692;23.278;2023-09-19T09:48:01;95228.22;;;24.37;60.00
6132;BME280;3097;42.692;23.278;2023-09-19T09:50:34;95224.50;;;24.38;59.89
6132;BME280;3097;42.692;23.278;2023-09-19T09:53:20;95228.47;;;24.49;60.16
6132;BME280;3097;42.692;23.278;2023-09-19T09:56:06;95226.00;;;24.52;59.79
6132;BME280;3097;42.692;23.278;2023-09-19T09:58:33;95228.00;;;24.47;59.06
6132;BME280;3097;42.692;23.278;2023-09-19T10:01:00;95227.50;;;24.45;60.29
6132;BME280;3097;42.692;23.278;2023-09-19T10:03:32;95219.78;;;24.48;59.13
6132;BME280;3097;42.692;23.278;2023-09-19T10:06:00;95223.94;;;24.41;59.46
6132;BME280;3097;42.692;23.278;2023-09-19T10:08:27;95209.34;;;24.21;59.56
6132;BME280;3097;42.692;23.278;2023-09-19T10:10:56;95204.84;;;24.21;59.41
6132;BME280;3097;42.692;23.278;2023-09-19T10:13:30;95139.56;;;23.74;60.07
6132;BME280;3097;42.692;23.278;2023-09-19T10:15:58;95212.75;;;24.21;60.21
6132;BME280;3097;42.692;23.278;2023-09-19T10:18:32;95214.91;;;24.19;59.96
6132;BME280;3097;42.692;23.278;2023-09-19T10:21:02;95213.63;;;24.17;60.51
6132;BME280;3097;42.692;23.278;2023-09-19T10:23:30;95221.00;;;24.20;60.72
6132;BME280;3097;42.692;23.278;2023-09-19T10:26:01;95211.09;;;24.25;59.94
6132;BME280;3097;42.692;23.278;2023-09-19T10:28:27;95220.44;;;24.32;59.92
6132;BME280;3097;42.692;23.278;2023-09-19T10:30:54;95186.03;;;24.14;59.07
6132;BME280;3097;42.692;23.278;2023-09-19T10:33:25;95210.31;;;24.25;59.44
6132;BME280;3097;42.692;23.278;2023-09-19T10:35:56;95209.53;;;24.24;59.81
6132;BME280;3097;42.692;23.278;2023-09-19T10:38:26;95195.44;;;24.20;59.44
6132;BME280;3097;42.692;23.278;2023-09-19T10:40:55;95209.69;;;24.42;59.45
6132;BME280;3097;42.692;23.278;2023-09-19T10:43:26;95207.19;;;24.45;59.38
6132;BME280;3097;42.692;23.278;2023-09-19T10:45:52;95199.91;;;24.42;59.25
6132;BME280;3097;42.692;23.278;2023-09-19T10:48:19;95195.66;;;24.33;59.08
6132;BME280;3097;42.692;23.278;2023-09-19T10:50:59;95193.94;;;24.14;59.74
6132;BME280;3097;42.692;23.278;2023-09-19T10:53:39;95186.63;;;24.11;59.14
6132;BME280;3097;42.692;23.278;2023-09-19T10:56:06;95184.88;;;24.07;60.09
6132;BME280;3097;42.692;23.278;2023-09-19T10:58:35;95175.38;;;23.97;59.54
6132;BME280;3097;42.692;23.278;2023-09-19T11:01:04;95186.19;;;23.96;59.94
6132;BME280;3097;42.692;23.278;2023-09-19T11:03:38;95182.56;;;24.05;60.84
6132;BME280;3097;42.692;23.278;2023-09-19T11:06:16;95180.28;;;24.12;60.96
6132;BME280;3097;42.692;23.278;2023-09-19T11:09:03;95190.03;;;24.25;60.28
6132;BME280;3097;42.692;23.278;2023-09-19T11:11:48;95180.13;;;24.31;59.41
6132;BME280;3097;42.692;23.278;2023-09-19T11:30:40;95163.72;;;24.56;59.23
6132;BME280;3097;42.692;23.278;2023-09-19T11:33:19;95078.34;;;24.13;58.52
6132;BME280;3097;42.692;23.278;2023-09-19T11:36:10;95148.91;;;24.47;58.81
6132;BME280;3097;42.692;23.278;2023-09-19T11:49:16;95120.25;;;24.23;59.88
6132;BME280;3097;42.692;23.278;2023-09-19T11:51:50;95118.50;;;24.41;59.86
6132;BME280;3097;42.692;23.278;2023-09-19T11:54:19;95113.81;;;24.38;59.96
6132;BME280;3097;42.692;23.278;2023-09-19T11:56:51;95126.81;;;24.56;59.82
6132;BME280;3097;42.692;23.278;2023-09-19T11:59:21;95126.53;;;24.66;59.24
6132;BME280;3097;42.692;23.278;2023-09-19T12:01:54;95123.59;;;24.68;58.97
6132;BME280;3097;42.692;23.278;2023-09-19T12:04:41;95114.94;;;24.76;59.44
6132;BME280;3097;42.692;23.278;2023-09-19T12:07:13;95103.94;;;24.83;59.72
6132;BME280;3097;42.692;23.278;2023-09-19T12:09:42;95102.34;;;24.95;58.90
6132;BME280;3097;42.692;23.278;2023-09-19T12:12:19;95098.47;;;25.01;58.18
6132;BME280;3097;42.692;23.278;2023-09-19T12:14:51;95102.16;;;24.92;58.04
6132;BME280;3097;42.692;23.278;2023-09-19T12:17:17;95094.91;;;24.75;58.79
6132;BME280;3097;42.692;23.278;2023-09-19T12:19:51;95078.00;;;24.67;59.39
6132;BME280;3097;42.692;23.278;2023-09-19T12:22:17;95080.50;;;24.81;58.76
6132;BME280;3097;42.692;23.278;2023-09-19T12:24:44;95059.53;;;24.67;59.50
6132;BME280;3097;42.692;23.278;2023-09-19T12:27:11;95060.78;;;24.70;59.49
6132;BME280;3097;42.692;23.278;2023-09-19T12:29:46;95076.19;;;24.85;59.06
6132;BME280;3097;42.692;23.278;2023-09-19T12:32:15;95054.91;;;24.73;59.39
6132;BME280;3097;42.692;23.278;2023-09-19T12:34:53;95066.88;;;24.79;59.06
6132;BME280;3097;42.692;23.278;2023-09-19T12:37:20;95064.56;;;24.86;58.44
6132;BME280;3097;42.692;23.278;2023-09-19T12:40:03;95065.63;;;24.77;58.95
6132;BME280;3097;42.692;23.278;2023-09-19T12:42:45;95063.16;;;24.80;58.73
6132;BME280;3097;42.692;23.278;2023-09-19T12:45:12;95066.88;;;24.79;59.08
6132;BME280;3097;42.692;23.278;2023-09-19T12:47:40;95041.72;;;24.64;58.62
6132;BME280;3097;42.692;23.278;2023-09-19T12:50:26;95046.06;;;24.69;58.93
6132;BME280;3097;42.692;23.278;2023-09-19T12:52:55;95061.59;;;24.79;59.03
6132;BME280;3097;42.692;23.278;2023-09-19T12:55:31;95061.16;;;24.86;58.77
6132;BME280;3097;42.692;23.278;2023-09-19T13:03:18;95049.66;;;24.82;59.21
6132;BME280;3097;42.692;23.278;2023-09-19T13:05:50;95047.06;;;24.90;58.60
6132;BME280;3097;42.692;23.278;2023-09-19T13:08:22;95041.81;;;24.99;58.68
6132;BME280;3097;42.692;23.278;2023-09-19T13:11:13;95043.66;;;24.98;58.46
6132;BME280;3097;42.692;23.278;2023-09-19T13:13:51;95043.81;;;24.93;58.79
6132;BME280;3097;42.692;23.278;2023-09-19T13:16:53;95044.69;;;24.89;58.99
6132;BME280;3097;42.692;23.278;2023-09-19T13:22:00;95021.78;;;24.98;58.53
6132;BME280;3097;42.692;23.278;2023-09-19T13:24:26;95024.91;;;25.00;58.41
6132;BME280;3097;42.692;23.278;2023-09-19T13:26:53;95007.97;;;24.92;58.94
6132;BME280;3097;42.692;23.278;2023-09-19T13:29:19;95011.44;;;25.10;58.79
6132;BME280;3097;42.692;23.278;2023-09-19T13:31:46;95013.91;;;25.15;58.48
6132;BME280;3097;42.692;23.278;2023-09-19T13:34:12;95018.13;;;25.25;58.71
6132;BME280;3097;42.692;23.278;2023-09-19T13:36:39;95008.94;;;25.31;58.17
6132;BME280;3097;42.692;23.278;2023-09-19T13:39:04;95006.91;;;25.36;57.68
6132;BME280;3097;42.692;23.278;2023-09-19T13:41:30;95024.16;;;25.51;57.37
6132;BME280;3097;42.692;23.278;2023-09-19T13:43:57;95011.44;;;25.53;57.96
6132;BME280;3097;42.692;23.278;2023-09-19T13:46:23;95011.91;;;25.55;57.88
6132;BME280;3097;42.692;23.278;2023-09-19T13:48:51;95006.00;;;25.58;57.89
6132;BME280;3097;42.692;23.278;2023-09-19T13:51:20;95005.50;;;25.56;57.72
6132;BME280;3097;42.692;23.278;2023-09-19T13:53:49;95015.63;;;25.54;58.28
6132;BME280;3097;42.692;23.278;2023-09-19T13:56:16;95005.97;;;25.50;58.32
6132;BME280;3097;42.692;23.278;2023-09-19T13:58:41;95012.19;;;25.45;58.65
6132;BME280;3097;42.692;23.278;2023-09-19T14:01:07;95004.41;;;25.57;57.97
6132;BME280;3097;42.692;23.278;2023-09-19T14:03:38;95010.47;;;25.49;58.11
6132;BME280;3097;42.692;23.278;2023-09-19T14:06:04;95008.81;;;25.62;57.76
6132;BME280;3097;42.692;23.278;2023-09-19T14:08:29;95012.97;;;25.54;57.84
6132;BME280;3097;42.692;23.278;2023-09-19T14:10:55;95011.13;;;25.55;58.41
6132;BME280;3097;42.692;23.278;2023-09-19T14:13:20;95014.97;;;25.57;57.96
6132;BME280;3097;42.692;23.278;2023-09-19T14:15:46;95019.50;;;25.65;57.61